Time;durP1;ratioP1;P1;durP2;ratioP2;P2;SDS_P1;SDS_P2;PMS_P1;PMS_P2;Temp;Humidity;BMP_temperature;BMP_pressure;BME280_temperature;BME280_humidity;BME280_pressure;Samples;Min_cycle;Max_cycle;Signal;HPM_P1;HPM_P2
2020/12/05 00:00:14;;;;;;;11.33;8.40;;;7.30;99.90;;;;;;5073188;28;20544;-67
2020/12/05 00:02:40;;;;;;;10.03;6.90;;;7.20;99.90;;;;;;5073220;28;20188;-66
2020/12/05 00:05:06;;;;;;;8.20;7.20;;;7.20;99.90;;;;;;5073245;28;20182;-66
2020/12/05 00:07:31;;;;;;;9.40;8.40;;;7.10;99.90;;;;;;5073295;28;20599;-66
2020/12/05 00:09:57;;;;;;;13.53;7.67;;;7.10;99.90;;;;;;5073012;28;20482;-66
2020/12/05 00:12:22;;;;;;;11.43;8.57;;;7.00;99.90;;;;;;5073136;28;20265;-66
2020/12/05 00:14:48;;;;;;;9.03;7.30;;;6.90;99.90;;;;;;5073131;28;20213;-66
2020/12/05 00:17:13;;;;;;;8.80;7.90;;;6.90;99.90;;;;;;5073096;28;20182;-66
2020/12/05 00:19:42;;;;;;;10.10;8.10;;;6.80;99.90;;;;;;5073156;28;20636;-66
2020/12/05 00:22:07;;;;;;;10.30;7.77;;;6.80;99.90;;;;;;5073096;28;20178;-66
2020/12/05 00:24:33;;;;;;;8.83;7.80;;;6.70;99.90;;;;;;5073015;28;20428;-66
2020/12/05 00:26:58;;;;;;;9.40;7.20;;;6.60;99.90;;;;;;5072930;28;20513;-67
2020/12/05 00:29:24;;;;;;;8.33;7.53;;;6.60;99.90;;;;;;5072835;28;20370;-67
2020/12/05 00:31:51;;;;;;;9.30;8.03;;;6.60;99.90;;;;;;5072804;28;20177;-67
2020/12/05 00:34:17;;;;;;;8.40;7.33;;;6.60;99.90;;;;;;5073093;28;20251;-67
2020/12/05 00:36:43;;;;;;;9.33;7.13;;;6.60;99.90;;;;;;5072903;28;20481;-67
2020/12/05 00:39:09;;;;;;;11.83;9.40;;;6.60;99.90;;;;;;5072829;28;20511;-67
2020/12/05 00:41:34;;;;;;;9.33;7.70;;;6.60;99.90;;;;;;5073066;28;20177;-66
2020/12/05 00:44:00;;;;;;;10.70;7.40;;;6.60;99.90;;;;;;5072824;28;20629;-66
2020/12/05 00:46:26;;;;;;;10.07;7.90;;;6.60;99.90;;;;;;5072951;28;20174;-65
2020/12/05 00:48:51;;;;;;;10.03;7.23;;;6.50;99.90;;;;;;5072648;28;20339;-65
2020/12/05 00:51:17;;;;;;;10.27;7.80;;;6.50;99.90;;;;;;5075055;28;20189;-66
2020/12/05 00:53:42;;;;;;;11.50;7.83;;;6.50;99.90;;;;;;5076832;28;20174;-65
2020/12/05 00:56:08;;;;;;;10.60;8.00;;;6.40;99.90;;;;;;5076667;28;20182;-65
2020/12/05 00:58:36;;;;;;;9.27;8.33;;;6.40;99.90;;;;;;5076718;28;20161;-65
2020/12/05 01:01:04;;;;;;;8.83;7.90;;;6.40;99.90;;;;;;5076638;28;20170;-65
2020/12/05 01:03:30;;;;;;;9.90;8.10;;;6.40;99.90;;;;;;5076633;28;20424;-65
2020/12/05 01:05:57;;;;;;;8.57;6.90;;;6.40;99.90;;;;;;5076523;28;20427;-65
2020/12/05 01:08:22;;;;;;;11.50;7.40;;;6.40;99.90;;;;;;5076538;28;20427;-65
2020/12/05 01:10:48;;;;;;;9.33;8.10;;;6.40;99.90;;;;;;5076356;28;20830;-65
2020/12/05 01:13:14;;;;;;;11.77;7.93;;;6.40;99.90;;;;;;5076495;28;20576;-65
2020/12/05 01:15:40;;;;;;;9.30;8.40;;;6.40;99.90;;;;;;5075118;28;20527;-65
2020/12/05 01:18:05;;;;;;;9.03;6.83;;;6.50;99.90;;;;;;5076290;28;20216;-65
2020/12/05 01:20:31;;;;;;;7.13;6.43;;;6.70;99.90;;;;;;5076262;28;20197;-65
2020/12/05 01:22:56;;;;;;;9.07;6.70;;;6.70;99.90;;;;;;5076176;28;20262;-65
2020/12/05 01:25:22;;;;;;;9.20;7.93;;;6.70;99.90;;;;;;5076207;28;20173;-65
2020/12/05 01:27:47;;;;;;;9.07;7.33;;;6.60;99.90;;;;;;5076203;28;20177;-65
2020/12/05 01:30:13;;;;;;;9.40;8.03;;;6.60;99.90;;;;;;5075895;28;20592;-65
2020/12/05 01:32:38;;;;;;;9.73;7.83;;;6.70;99.90;;;;;;5076086;28;20179;-65
2020/12/05 01:35:05;;;;;;;9.90;7.00;;;6.70;99.90;;;;;;5075984;28;20178;-66
2020/12/05 01:37:31;;;;;;;10.67;8.40;;;6.70;99.90;;;;;;5075940;28;20174;-66
2020/12/05 01:39:57;;;;;;;12.13;7.53;;;6.70;99.90;;;;;;5075925;28;20794;-66
2020/12/05 01:42:23;;;;;;;12.83;8.30;;;6.70;99.90;;;;;;5075893;28;20519;-65
2020/12/05 01:44:48;;;;;;;9.17;7.23;;;6.70;99.90;;;;;;5075762;28;20178;-65
2020/12/05 01:47:14;;;;;;;9.27;6.87;;;6.70;99.90;;;;;;5075842;28;20184;-65
2020/12/05 01:49:40;;;;;;;10.90;7.77;;;6.80;99.90;;;;;;5075813;28;20637;-66
2020/12/05 01:52:06;;;;;;;10.20;8.47;;;6.90;99.90;;;;;;5075763;28;20175;-64
2020/12/05 01:54:32;;;;;;;10.50;8.90;;;6.90;99.90;;;;;;5075723;28;20181;-64
2020/12/05 01:57:05;;;;;;;10.63;9.50;;;7.00;99.90;;;;;;5075481;28;20435;-64
2020/12/05 01:59:31;;;;;;;9.10;7.87;;;7.00;99.90;;;;;;5075393;28;20228;-66
2020/12/05 02:02:01;;;;;;;13.20;8.53;;;7.00;99.90;;;;;;5074940;28;20581;-66
2020/12/05 02:04:45;;;;;;;11.63;8.80;;;7.00;99.90;;;;;;5074584;28;20471;-67
2020/12/05 02:07:17;;;;;;;10.93;8.00;;;7.00;99.90;;;;;;5073471;28;20443;-67
2020/12/05 02:09:47;;;;;;;10.93;8.33;;;7.00;99.90;;;;;;5074560;28;20558;-67
2020/12/05 02:12:48;;;;;;;8.60;7.70;;;7.00;99.90;;;;;;5074579;28;20537;-71
2020/12/05 02:15:20;;;;;;;11.37;9.37;;;7.00;99.90;;;;;;5064519;28;20432;-65
2020/12/05 02:17:59;;;;;;;17.17;11.03;;;7.00;99.90;;;;;;5074389;28;20744;-65
2020/12/05 02:20:30;;;;;;;11.20;8.97;;;7.00;99.90;;;;;;5074458;28;20493;-65
2020/12/05 02:23:01;;;;;;;9.40;7.83;;;7.00;99.90;;;;;;5074353;28;20420;-65
2020/12/05 02:25:27;;;;;;;12.07;10.00;;;7.00;99.90;;;;;;5074279;28;20411;-65
2020/12/05 02:27:54;;;;;;;11.07;8.77;;;7.00;99.90;;;;;;5074220;28;20415;-65
2020/12/05 02:30:20;;;;;;;10.37;8.70;;;7.10;99.90;;;;;;5074029;28;20245;-65
2020/12/05 02:32:45;;;;;;;10.37;9.30;;;7.10;99.90;;;;;;5074096;28;20424;-65
2020/12/05 02:35:11;;;;;;;12.30;8.93;;;7.00;99.90;;;;;;5074076;28;20178;-65
2020/12/05 02:37:41;;;;;;;10.27;8.60;;;7.10;99.90;;;;;;5073847;28;20181;-65
2020/12/05 02:40:07;;;;;;;10.20;8.40;;;7.10;99.90;;;;;;5074147;28;20196;-65
2020/12/05 02:42:34;;;;;;;8.80;7.60;;;7.00;99.90;;;;;;5073882;28;20425;-66
2020/12/05 02:45:00;;;;;;;8.63;7.83;;;7.00;99.90;;;;;;5073877;28;20511;-66
2020/12/05 02:47:25;;;;;;;13.47;8.73;;;7.00;99.90;;;;;;5073863;28;20859;-66
2020/12/05 02:49:51;;;;;;;12.37;9.47;;;7.00;99.90;;;;;;5073739;28;20708;-66
2020/12/05 02:52:16;;;;;;;10.43;9.33;;;7.00;99.90;;;;;;5073886;28;20583;-66
2020/12/05 02:54:42;;;;;;;10.37;8.57;;;7.00;99.90;;;;;;5073805;28;20578;-66
2020/12/05 02:57:07;;;;;;;9.20;8.23;;;6.90;99.90;;;;;;5073461;28;20602;-66
2020/12/05 02:59:33;;;;;;;12.90;9.80;;;6.90;99.90;;;;;;5073421;28;20185;-67
2020/12/05 03:01:59;;;;;;;11.90;8.73;;;6.90;99.90;;;;;;5073148;28;20175;-66
2020/12/05 03:04:25;;;;;;;15.90;8.77;;;6.90;99.90;;;;;;5072963;28;20178;-67
2020/12/05 03:06:51;;;;;;;12.67;10.43;;;6.80;99.90;;;;;;5072975;28;20423;-67
2020/12/05 03:09:17;;;;;;;14.83;10.30;;;6.90;99.90;;;;;;5072803;28;20205;-67
2020/12/05 03:11:42;;;;;;;10.17;8.83;;;6.90;99.90;;;;;;5072863;28;20179;-65
2020/12/05 03:14:08;;;;;;;12.10;8.70;;;6.90;99.90;;;;;;5071989;28;20255;-65
2020/12/05 03:16:35;;;;;;;13.10;10.30;;;6.90;99.90;;;;;;5072842;28;20170;-66
2020/12/05 03:19:00;;;;;;;11.10;9.63;;;6.90;99.90;;;;;;5072766;28;20198;-66
2020/12/05 03:21:26;;;;;;;16.43;9.93;;;6.90;99.90;;;;;;5072588;28;20457;-66
2020/12/05 03:23:52;;;;;;;12.50;8.70;;;6.90;99.90;;;;;;5072350;28;20188;-66
2020/12/05 03:26:18;;;;;;;11.90;9.50;;;6.90;99.90;;;;;;5069564;28;20178;-65
2020/12/05 03:28:44;;;;;;;11.37;7.93;;;6.90;99.90;;;;;;5072209;28;20225;-65
2020/12/05 03:31:17;;;;;;;14.37;8.03;;;7.00;99.90;;;;;;5072189;28;20178;-67
2020/12/05 03:33:44;;;;;;;13.77;9.53;;;7.00;99.90;;;;;;5072384;28;20931;-66
2020/12/05 03:36:10;;;;;;;11.90;9.43;;;7.00;99.90;;;;;;5072333;28;20488;-66
2020/12/05 03:38:35;;;;;;;12.27;9.07;;;7.00;99.90;;;;;;5072277;28;20428;-66
2020/12/05 03:41:01;;;;;;;11.00;9.33;;;7.00;99.90;;;;;;5071889;28;20440;-66
2020/12/05 03:43:26;;;;;;;13.27;10.33;;;7.00;99.90;;;;;;5072242;28;20174;-65
2020/12/05 03:45:52;;;;;;;14.07;10.40;;;7.00;99.90;;;;;;5072730;28;20173;-66
2020/12/05 03:48:17;;;;;;;12.27;9.50;;;6.90;99.90;;;;;;5072335;28;20185;-66
2020/12/05 03:50:43;;;;;;;12.53;9.90;;;6.90;99.90;;;;;;5072443;28;20258;-66
2020/12/05 03:53:08;;;;;;;13.63;10.00;;;6.90;99.90;;;;;;5072531;28;20176;-67
2020/12/05 03:55:34;;;;;;;13.53;10.10;;;6.90;99.90;;;;;;5072572;28;20189;-66
2020/12/05 03:58:01;;;;;;;14.90;11.57;;;6.90;99.90;;;;;;5072529;28;20175;-67
2020/12/05 04:00:27;;;;;;;13.10;9.80;;;6.90;99.90;;;;;;5072417;28;20185;-66
2020/12/05 04:02:53;;;;;;;17.83;12.00;;;6.90;99.90;;;;;;5071810;28;20425;-66
2020/12/05 04:05:19;;;;;;;18.80;13.40;;;6.90;99.90;;;;;;5070862;28;20532;-65
2020/12/05 04:07:45;;;;;;;15.63;10.97;;;7.00;99.90;;;;;;5071068;28;20227;-65
2020/12/05 04:10:10;;;;;;;13.97;11.17;;;7.00;99.90;;;;;;5072319;28;20221;-65
2020/12/05 04:12:36;;;;;;;14.90;11.20;;;7.00;99.90;;;;;;5072221;28;20171;-65
2020/12/05 04:15:02;;;;;;;16.70;11.30;;;7.10;99.90;;;;;;5070029;28;20184;-65
2020/12/05 04:17:27;;;;;;;18.13;12.00;;;7.10;99.90;;;;;;5069641;28;20537;-65
2020/12/05 04:19:53;;;;;;;19.20;11.80;;;7.00;99.90;;;;;;5071251;28;20428;-65
2020/12/05 04:22:18;;;;;;;17.30;11.60;;;7.10;99.90;;;;;;5071401;28;20270;-65
2020/12/05 04:24:44;;;;;;;15.37;12.53;;;7.10;99.90;;;;;;5071981;28;20213;-64
2020/12/05 04:27:10;;;;;;;20.07;13.20;;;7.10;99.90;;;;;;5072104;28;20190;-65
2020/12/05 04:29:35;;;;;;;17.57;12.93;;;7.10;99.90;;;;;;5072437;28;20253;-65
2020/12/05 06:31:59;;;;;;;16.77;12.20;;;7.30;99.90;;;;;;5313021;23;20351;-77
2020/12/05 06:34:42;;;;;;;20.20;13.40;;;7.30;99.90;;;;;;4976530;28;20423;-76
2020/12/05 06:37:10;;;;;;;18.90;14.03;;;7.30;99.90;;;;;;4976250;28;20663;-77
2020/12/05 06:39:36;;;;;;;18.53;13.60;;;7.30;99.90;;;;;;4976366;28;20798;-77
2020/12/05 06:42:02;;;;;;;17.53;12.53;;;7.30;99.90;;;;;;4976210;28;20429;-76
2020/12/05 06:44:33;;;;;;;17.20;12.60;;;7.40;99.90;;;;;;4976273;28;20196;-74
2020/12/05 06:47:07;;;;;;;18.00;12.60;;;7.40;99.90;;;;;;4976083;28;20224;-74
2020/12/05 06:49:35;;;;;;;19.13;13.30;;;7.40;99.90;;;;;;4976031;28;20480;-74
2020/12/05 06:52:24;;;;;;;18.60;12.70;;;7.20;99.90;;;;;;4975988;28;20839;-74
2020/12/05 06:54:54;;;;;;;19.33;13.40;;;7.10;99.90;;;;;;4972919;28;20955;-74
2020/12/05 06:57:22;;;;;;;17.73;13.10;;;7.20;99.90;;;;;;4976081;28;20417;-74
2020/12/05 06:59:48;;;;;;;20.23;12.60;;;7.20;99.90;;;;;;4975790;28;21002;-74
2020/12/05 07:02:31;;;;;;;20.80;13.33;;;7.20;99.90;;;;;;4975882;28;20432;-74
2020/12/05 07:05:18;;;;;;;19.83;13.47;;;7.10;99.90;;;;;;4975701;28;20205;-73
2020/12/05 07:07:49;;;;;;;22.10;12.47;;;7.10;99.90;;;;;;5074705;23;20485;-72
2020/12/05 07:10:16;;;;;;;17.00;12.50;;;7.10;99.90;;;;;;4975631;28;20516;-75
2020/12/05 07:12:43;;;;;;;21.43;13.63;;;7.20;99.90;;;;;;4975506;28;20432;-76
2020/12/05 07:15:22;;;;;;;27.40;12.90;;;7.20;99.90;;;;;;4975721;28;20849;-76
2020/12/05 07:17:49;;;;;;;19.33;12.93;;;7.10;99.90;;;;;;4975499;28;20425;-77
2020/12/05 07:20:15;;;;;;;22.37;13.23;;;7.20;99.90;;;;;;4975610;28;20915;-77
2020/12/05 07:22:42;;;;;;;22.20;14.10;;;7.20;99.90;;;;;;4975449;28;20515;-76
2020/12/05 07:25:07;;;;;;;21.10;14.37;;;7.20;99.90;;;;;;4975536;28;20596;-75
2020/12/05 07:27:33;;;;;;;21.67;14.40;;;7.20;99.90;;;;;;4975282;28;20463;-76
2020/12/05 07:29:59;;;;;;;22.87;13.80;;;7.20;99.90;;;;;;4975138;28;20315;-76
2020/12/05 07:32:32;;;;;;;18.40;13.97;;;7.20;99.90;;;;;;4975399;28;20178;-76
2020/12/05 07:34:58;;;;;;;22.50;15.07;;;7.20;99.90;;;;;;4975202;28;20185;-76
2020/12/05 07:37:25;;;;;;;23.53;15.47;;;7.20;99.90;;;;;;4974063;28;20495;-76
2020/12/05 07:39:51;;;;;;;22.73;14.83;;;7.10;99.90;;;;;;4975075;28;20508;-77
2020/12/05 07:42:17;;;;;;;20.23;14.00;;;7.10;99.90;;;;;;4975163;28;20445;-78
2020/12/05 07:44:42;;;;;;;20.70;14.80;;;7.10;99.90;;;;;;4975036;28;20190;-78
2020/12/05 07:47:21;;;;;;;23.30;16.07;;;7.10;99.90;;;;;;4975142;28;20224;-78
2020/12/05 07:49:54;;;;;;;27.53;15.67;;;7.10;99.90;;;;;;4974832;28;20694;-78
2020/12/05 07:52:21;;;;;;;22.03;14.00;;;7.10;99.90;;;;;;4974991;28;20468;-78
2020/12/05 07:54:57;;;;;;;19.33;13.07;;;7.10;99.90;;;;;;4974917;28;20444;-78
2020/12/05 07:57:34;;;;;;;18.57;12.77;;;7.20;99.90;;;;;;4974981;28;20553;-77
2020/12/05 08:00:10;;;;;;;21.70;14.37;;;7.20;99.90;;;;;;4974360;28;20449;-77
2020/12/05 08:03:19;;;;;;;23.57;14.67;;;7.20;99.90;;;;;;4974870;28;20421;-77
2020/12/05 08:05:56;;;;;;;21.40;14.87;;;7.20;99.90;;;;;;4974788;28;20848;-77
2020/12/05 08:08:27;;;;;;;19.40;13.10;;;7.30;99.90;;;;;;4974524;28;20995;-77
2020/12/05 08:11:00;;;;;;;18.33;13.63;;;7.30;99.90;;;;;;4974611;28;20476;-77
2020/12/05 08:13:28;;;;;;;20.30;14.43;;;7.30;99.90;;;;;;4974766;28;20467;-77
2020/12/05 08:16:06;;;;;;;19.33;12.33;;;7.10;99.90;;;;;;4974543;28;20456;-78
2020/12/05 08:18:35;;;;;;;17.80;13.00;;;7.10;99.90;;;;;;4974523;28;20503;-74
2020/12/05 08:21:02;;;;;;;18.90;12.60;;;7.30;99.90;;;;;;4973289;28;20429;-81
2020/12/05 08:23:32;;;;;;;23.63;15.27;;;7.30;99.90;;;;;;4973723;28;20848;-80
2020/12/05 08:26:07;;;;;;;22.10;13.60;;;7.30;99.90;;;;;;4973613;28;20800;-79
2020/12/05 08:28:41;;;;;;;19.60;13.73;;;7.30;99.90;;;;;;4973581;28;20420;-79
2020/12/05 08:31:12;;;;;;;17.70;12.27;;;7.10;99.90;;;;;;4973484;28;20433;-79
2020/12/05 08:33:45;;;;;;;23.70;13.93;;;7.10;99.90;;;;;;4973670;28;20423;-77
2020/12/05 08:36:23;;;;;;;22.03;12.90;;;7.10;99.90;;;;;;4973506;28;20798;-82
2020/12/05 08:38:49;;;;;;;16.37;12.30;;;7.30;99.90;;;;;;4973486;28;20421;-79
2020/12/05 08:41:15;;;;;;;22.33;14.90;;;7.40;99.90;;;;;;4973486;28;20836;-81
2020/12/05 08:43:41;;;;;;;18.60;12.13;;;7.40;99.90;;;;;;4973251;28;20200;-79
2020/12/05 08:46:18;;;;;;;17.63;11.00;;;7.20;99.90;;;;;;4967337;28;20468;-79
2020/12/05 08:48:44;;;;;;;18.60;12.10;;;7.20;99.90;;;;;;4972324;28;20559;-80
2020/12/05 08:51:09;;;;;;;17.40;12.27;;;7.30;99.90;;;;;;4972787;28;20429;-82
2020/12/05 08:53:35;;;;;;;20.57;11.07;;;7.30;99.90;;;;;;4971947;28;20452;-81
2020/12/05 08:56:02;;;;;;;15.03;11.93;;;7.40;99.90;;;;;;4973188;28;20265;-82
2020/12/05 08:58:47;;;;;;;19.47;12.40;;;7.40;99.90;;;;;;4973315;28;20185;-82
2020/12/05 09:01:14;;;;;;;14.50;10.67;;;7.50;99.90;;;;;;4973468;28;20508;-79
2020/12/05 09:03:41;;;;;;;15.90;11.53;;;7.50;99.90;;;;;;4973264;28;20583;-83
2020/12/05 09:06:07;;;;;;;16.83;10.27;;;7.60;99.90;;;;;;4973757;28;20429;-80
2020/12/05 09:08:34;;;;;;;16.23;10.90;;;7.60;99.90;;;;;;4964639;28;20472;-79
2020/12/05 09:11:00;;;;;;;16.00;12.07;;;7.60;99.90;;;;;;4976443;28;20424;-80
2020/12/05 09:13:25;;;;;;;16.63;11.23;;;7.70;99.90;;;;;;4976785;28;20437;-80
2020/12/05 09:15:58;;;;;;;13.63;9.93;;;7.70;99.90;;;;;;4976904;28;20421;-80
2020/12/05 09:18:24;;;;;;;16.43;12.30;;;7.60;99.90;;;;;;4976521;28;20563;-80
2020/12/05 09:20:49;;;;;;;17.63;10.50;;;7.50;99.90;;;;;;4977011;28;20770;-79
2020/12/05 09:23:26;;;;;;;17.57;11.50;;;7.50;99.90;;;;;;4976979;28;20440;-79
2020/12/05 09:26:00;;;;;;;13.97;10.33;;;7.40;99.90;;;;;;4976911;28;20662;-81
2020/12/05 09:28:25;;;;;;;14.53;10.57;;;7.50;99.90;;;;;;4977593;28;20428;-82
2020/12/05 09:30:51;;;;;;;17.37;11.33;;;7.50;99.90;;;;;;4977129;28;20899;-82
2020/12/05 09:33:17;;;;;;;13.33;10.07;;;7.50;99.90;;;;;;4976966;28;20569;-79
2020/12/05 09:35:44;;;;;;;13.30;10.57;;;7.50;99.90;;;;;;4976648;28;20199;-80
2020/12/05 09:38:09;;;;;;;12.40;9.27;;;7.60;99.90;;;;;;4976492;28;20451;-81
2020/12/05 09:40:35;;;;;;;13.10;9.17;;;7.70;99.90;;;;;;4976409;28;20437;-81
2020/12/05 09:43:01;;;;;;;16.93;9.27;;;7.70;99.90;;;;;;4976158;28;20189;-84
2020/12/05 09:45:27;;;;;;;10.00;7.33;;;7.80;99.90;;;;;;4976673;28;20525;-81
2020/12/05 09:47:53;;;;;;;13.03;7.90;;;8.00;99.90;;;;;;4975518;28;20185;-81
2020/12/05 09:50:19;;;;;;;17.00;8.03;;;7.90;99.90;;;;;;4975063;28;20979;-85
2020/12/05 09:52:45;;;;;;;11.93;8.07;;;8.10;99.90;;;;;;4976203;28;20439;-81
2020/12/05 09:55:11;;;;;;;14.97;7.83;;;8.30;99.90;;;;;;4977159;28;20696;-81
2020/12/05 09:57:37;;;;;;;13.73;8.33;;;8.30;99.90;;;;;;4976875;28;20653;-80
2020/12/05 10:00:13;;;;;;;8.77;7.50;;;8.30;99.90;;;;;;4976228;28;20437;-81
2020/12/05 10:02:39;;;;;;;10.53;7.10;;;8.30;99.90;;;;;;4976932;28;20601;-80
2020/12/05 10:05:09;;;;;;;12.30;6.80;;;8.30;99.90;;;;;;4975232;28;20431;-80
2020/12/05 10:07:35;;;;;;;8.30;5.67;;;8.30;99.90;;;;;;4974641;28;20468;-80
2020/12/05 10:10:01;;;;;;;6.30;5.27;;;8.40;99.90;;;;;;4974665;28;20505;-80
2020/12/05 10:12:26;;;;;;;8.20;5.43;;;8.40;99.90;;;;;;4974752;28;20633;-85
2020/12/05 10:14:52;;;;;;;5.73;4.60;;;8.30;99.90;;;;;;4975491;28;20547;-81
2020/12/05 10:17:18;;;;;;;6.87;4.60;;;8.40;99.90;;;;;;4976337;28;20183;-81
2020/12/05 10:19:44;;;;;;;5.70;5.10;;;8.20;99.90;;;;;;4976625;28;20261;-80
2020/12/05 10:22:09;;;;;;;6.63;4.17;;;8.20;99.90;;;;;;4976385;28;20519;-81
2020/12/05 10:24:35;;;;;;;6.57;4.93;;;8.40;99.90;;;;;;4976280;28;20224;-80
2020/12/05 10:27:00;;;;;;;6.63;5.40;;;8.40;99.90;;;;;;4976470;28;20229;-80
2020/12/05 10:29:26;;;;;;;5.07;4.23;;;8.40;99.90;;;;;;4976608;28;20232;-84
2020/12/05 10:31:53;;;;;;;8.37;5.40;;;8.40;99.90;;;;;;4977708;28;20240;-78
2020/12/05 10:34:22;;;;;;;6.10;5.03;;;8.40;99.90;;;;;;4976698;28;20249;-78
2020/12/05 10:36:48;;;;;;;5.80;4.30;;;8.50;99.90;;;;;;4976147;28;20434;-78
2020/12/05 10:39:14;;;;;;;6.47;5.23;;;8.70;99.90;;;;;;4976329;28;20444;-77
2020/12/05 10:41:40;;;;;;;7.60;5.00;;;8.70;99.90;;;;;;4976259;28;20433;-78
2020/12/05 10:44:08;;;;;;;7.00;4.50;;;8.80;99.90;;;;;;4976156;28;20509;-73
2020/12/05 10:46:39;;;;;;;6.73;4.30;;;8.70;99.90;;;;;;4976157;28;20766;-74
2020/12/05 10:49:05;;;;;;;8.10;4.20;;;9.00;99.90;;;;;;4975923;28;20499;-74
2020/12/05 10:51:30;;;;;;;6.53;4.80;;;9.20;99.90;;;;;;4976127;28;20425;-74
2020/12/05 10:53:56;;;;;;;7.23;4.17;;;9.40;99.90;;;;;;4975979;28;20170;-74
2020/12/05 10:56:24;;;;;;;5.40;3.67;;;9.50;99.90;;;;;;4975933;28;20206;-74
2020/12/05 10:58:50;;;;;;;7.80;3.87;;;9.50;99.90;;;;;;4975888;28;20182;-74
2020/12/05 11:01:16;;;;;;;6.20;4.10;;;9.30;99.90;;;;;;4975764;28;20473;-74
2020/12/05 11:03:41;;;;;;;4.53;3.40;;;9.30;99.90;;;;;;4975810;28;20176;-74
2020/12/05 11:06:07;;;;;;;4.73;4.20;;;9.40;99.90;;;;;;4975659;28;20177;-74
2020/12/05 11:08:32;;;;;;;3.83;3.40;;;9.40;99.90;;;;;;4975442;28;20328;-75
2020/12/05 11:10:58;;;;;;;5.90;3.30;;;9.40;99.90;;;;;;4975083;28;20308;-75
2020/12/05 11:13:23;;;;;;;5.23;4.10;;;9.30;99.90;;;;;;4975427;28;20623;-73
2020/12/05 11:15:49;;;;;;;5.03;4.17;;;9.30;99.90;;;;;;4974509;28;20652;-74
2020/12/05 11:18:14;;;;;;;6.77;4.20;;;9.30;99.90;;;;;;4974458;28;20174;-74
2020/12/05 11:20:40;;;;;;;7.30;4.00;;;9.20;99.90;;;;;;4974433;28;20247;-74
2020/12/05 11:23:05;;;;;;;4.03;3.30;;;9.20;99.90;;;;;;4974551;28;20170;-74
2020/12/05 11:25:31;;;;;;;4.23;2.90;;;9.00;99.90;;;;;;4974553;28;20264;-74
2020/12/05 11:27:56;;;;;;;6.67;4.10;;;9.10;99.90;;;;;;4974260;28;20553;-74
2020/12/05 11:30:22;;;;;;;7.73;4.10;;;9.00;99.90;;;;;;4974241;28;20217;-74
2020/12/05 11:32:47;;;;;;;7.90;3.53;;;9.10;99.90;;;;;;4974299;28;20188;-74
2020/12/05 11:35:13;;;;;;;6.00;4.00;;;9.10;99.90;;;;;;4973595;28;20178;-73
2020/12/05 11:37:38;;;;;;;6.10;3.77;;;9.20;99.90;;;;;;4974234;28;20173;-73
2020/12/05 11:40:04;;;;;;;5.37;3.77;;;9.30;99.90;;;;;;4974212;28;20173;-74
2020/12/05 11:42:33;;;;;;;5.77;4.20;;;9.40;99.90;;;;;;4974262;28;20174;-73
2020/12/05 11:44:59;;;;;;;5.87;3.23;;;9.60;99.90;;;;;;4974113;28;20192;-73
2020/12/05 11:47:26;;;;;;;5.93;3.40;;;9.70;99.90;;;;;;4974102;28;20783;-74
2020/12/05 11:49:52;;;;;;;3.33;2.53;;;9.80;99.90;;;;;;4974045;28;20547;-74
2020/12/05 11:52:17;;;;;;;3.70;2.70;;;9.70;99.90;;;;;;4973949;28;20433;-74
2020/12/05 11:54:43;;;;;;;5.83;3.00;;;9.70;99.90;;;;;;4974006;28;20185;-74
2020/12/05 11:57:08;;;;;;;5.07;3.30;;;9.70;99.90;;;;;;4974054;28;20240;-74
2020/12/05 11:59:34;;;;;;;6.67;3.97;;;9.80;99.90;;;;;;4974063;28;20637;-74
2020/12/05 12:02:00;;;;;;;4.90;3.53;;;9.90;99.90;;;;;;4973732;28;20641;-74
2020/12/05 12:04:25;;;;;;;4.90;3.13;;;9.80;99.90;;;;;;4970800;28;20587;-75
2020/12/05 12:06:51;;;;;;;3.80;2.77;;;9.80;99.90;;;;;;4960589;28;20634;-75
2020/12/05 12:09:17;;;;;;;4.00;2.77;;;9.90;99.90;;;;;;4956760;28;20230;-80
2020/12/05 12:11:42;;;;;;;2.90;2.40;;;9.60;99.90;;;;;;4963863;28;20193;-79
2020/12/05 12:14:08;;;;;;;6.40;3.20;;;9.50;99.90;;;;;;4960346;28;20414;-79
2020/12/05 12:16:34;;;;;;;5.60;3.53;;;9.50;99.90;;;;;;4954491;28;20202;-78
2020/12/05 12:18:59;;;;;;;2.67;2.37;;;9.30;99.90;;;;;;4954447;28;20178;-79
2020/12/05 12:21:25;;;;;;;3.97;2.13;;;9.20;99.90;;;;;;4954426;28;20201;-75
2020/12/05 12:23:51;;;;;;;2.63;1.90;;;9.20;99.90;;;;;;4961832;28;20666;-81
2020/12/05 12:26:17;;;;;;;3.10;2.47;;;9.50;99.90;;;;;;4964148;28;20426;-77
2020/12/05 12:28:43;;;;;;;4.07;2.17;;;9.60;99.90;;;;;;4962341;28;20631;-75
2020/12/05 12:31:09;;;;;;;1.93;1.53;;;9.60;99.90;;;;;;4964914;28;20170;-75
2020/12/05 12:33:35;;;;;;;2.60;1.53;;;9.60;99.90;;;;;;4962294;28;20875;-75
2020/12/05 12:36:01;;;;;;;2.30;1.80;;;9.70;99.90;;;;;;4965105;28;20205;-76
2020/12/05 12:38:27;;;;;;;1.50;1.40;;;9.50;99.90;;;;;;4973333;28;20436;-75
2020/12/05 12:40:52;;;;;;;1.50;1.20;;;9.60;99.90;;;;;;4973368;28;20182;-74
2020/12/05 12:43:18;;;;;;;3.47;1.30;;;9.70;99.90;;;;;;4973470;28;20182;-73
2020/12/05 12:45:45;;;;;;;2.03;1.63;;;9.70;99.90;;;;;;4974147;28;20180;-79
2020/12/05 12:50:37;;;;;;;4.60;3.83;;;9.50;99.90;;;;;;4972335;28;20838;-80
2020/12/05 12:53:03;;;;;;;2.40;1.83;;;9.60;99.90;;;;;;4976733;28;20264;-83
2020/12/05 12:55:29;;;;;;;6.07;3.00;;;9.60;99.90;;;;;;4976885;28;20433;-75
2020/12/05 12:57:58;;;;;;;2.03;1.80;;;9.60;99.90;;;;;;4973251;28;20431;-77
2020/12/05 13:00:23;;;;;;;2.10;1.57;;;9.70;99.90;;;;;;4977158;28;20189;-76
2020/12/05 13:02:49;;;;;;;1.60;1.50;;;9.80;99.90;;;;;;4977122;28;20409;-76
2020/12/05 13:05:14;;;;;;;1.60;1.43;;;9.60;99.90;;;;;;4976948;28;20181;-75
2020/12/05 13:07:40;;;;;;;1.60;1.17;;;9.50;99.90;;;;;;4976892;28;20232;-73
2020/12/05 13:10:05;;;;;;;1.70;1.40;;;9.50;99.90;;;;;;4976789;28;20217;-74
2020/12/05 13:12:31;;;;;;;1.73;1.60;;;9.50;99.90;;;;;;4976829;28;20180;-74
2020/12/05 13:14:56;;;;;;;1.93;1.53;;;9.50;99.90;;;;;;4976602;28;20185;-74
2020/12/05 13:17:22;;;;;;;1.80;1.20;;;9.40;99.90;;;;;;4976895;28;20173;-75
2020/12/05 13:19:47;;;;;;;1.47;1.27;;;9.50;99.90;;;;;;4976902;28;20186;-74
2020/12/05 13:22:13;;;;;;;2.40;2.20;;;9.60;99.90;;;;;;4976846;28;20190;-75
2020/12/05 13:24:38;;;;;;;1.80;1.60;;;9.70;99.90;;;;;;4976714;28;20645;-75
2020/12/05 13:27:04;;;;;;;1.83;1.50;;;9.80;99.90;;;;;;4976517;28;20685;-78
2020/12/05 13:29:30;;;;;;;1.73;1.20;;;9.70;99.90;;;;;;4976573;28;20248;-78
2020/12/05 13:31:55;;;;;;;1.40;1.30;;;9.90;99.90;;;;;;4976299;28;20264;-78
2020/12/05 13:34:21;;;;;;;1.60;1.27;;;10.00;99.10;;;;;;4976679;28;20421;-77
2020/12/05 13:36:46;;;;;;;2.23;1.33;;;10.10;98.50;;;;;;4976480;28;20182;-76
2020/12/05 13:39:12;;;;;;;1.90;1.73;;;10.00;98.30;;;;;;4976412;28;20177;-75
2020/12/05 13:41:39;;;;;;;1.40;1.20;;;10.00;98.70;;;;;;4971472;28;20273;-77
2020/12/05 13:44:04;;;;;;;1.60;1.50;;;10.00;98.40;;;;;;4970036;28;20245;-78
2020/12/05 13:46:30;;;;;;;2.33;1.70;;;10.00;98.60;;;;;;4966525;28;20441;-77
2020/12/05 13:48:57;;;;;;;2.30;1.40;;;10.10;98.60;;;;;;4963356;28;20198;-77
2020/12/05 13:51:27;;;;;;;1.50;1.20;;;10.00;98.70;;;;;;4967869;28;20445;-77
2020/12/05 13:53:53;;;;;;;1.60;1.10;;;9.80;99.10;;;;;;4957855;28;20526;-77
2020/12/05 13:56:18;;;;;;;1.93;1.50;;;9.70;98.80;;;;;;4970608;28;20520;-77
2020/12/05 13:58:45;;;;;;;1.93;1.40;;;9.70;99.00;;;;;;4961387;28;20176;-77
2020/12/05 14:01:10;;;;;;;2.77;1.57;;;9.70;98.90;;;;;;4968657;28;20174;-77
2020/12/05 14:03:36;;;;;;;1.93;1.60;;;9.40;99.80;;;;;;4957414;29;20426;-77
2020/12/05 14:06:02;;;;;;;2.40;1.37;;;9.40;99.90;;;;;;4972166;28;20542;-77
2020/12/05 14:08:27;;;;;;;1.37;1.27;;;9.40;99.90;;;;;;4960422;28;20222;-76
2020/12/05 14:10:53;;;;;;;4.70;1.80;;;9.40;99.90;;;;;;4970490;28;20298;-77
2020/12/05 14:13:19;;;;;;;2.17;1.80;;;9.30;99.90;;;;;;4966474;28;20178;-77
2020/12/05 14:15:45;;;;;;;2.10;1.63;;;9.30;99.90;;;;;;4963509;28;20186;-77
2020/12/05 14:18:11;;;;;;;1.60;1.40;;;9.20;99.90;;;;;;4972888;28;20445;-77
2020/12/05 14:20:36;;;;;;;2.93;1.67;;;9.40;99.90;;;;;;4960660;28;20178;-77
2020/12/05 14:23:02;;;;;;;1.80;1.50;;;9.30;99.90;;;;;;4969147;28;20174;-77
2020/12/05 14:25:28;;;;;;;4.00;1.80;;;9.30;99.90;;;;;;4967374;28;20182;-77
2020/12/05 14:27:54;;;;;;;2.27;1.70;;;9.20;99.90;;;;;;4962330;28;20178;-77
2020/12/05 14:30:19;;;;;;;1.80;1.50;;;9.20;99.80;;;;;;4972735;28;20214;-78
2020/12/05 14:32:45;;;;;;;2.73;1.40;;;9.30;99.80;;;;;;4961412;28;20513;-77
2020/12/05 14:35:10;;;;;;;2.37;1.20;;;9.30;99.50;;;;;;4968041;28;20179;-77
2020/12/05 14:37:36;;;;;;;1.77;1.40;;;9.10;99.70;;;;;;4956743;29;20178;-77
2020/12/05 14:40:03;;;;;;;2.53;1.70;;;9.20;99.70;;;;;;4971732;28;20184;-77
2020/12/05 14:42:28;;;;;;;2.00;1.80;;;9.10;99.90;;;;;;4960026;28;20187;-77
2020/12/05 14:44:54;;;;;;;2.90;1.90;;;9.00;99.90;;;;;;4968715;28;20638;-78
2020/12/05 14:47:19;;;;;;;2.30;1.57;;;9.00;99.90;;;;;;4965725;28;20508;-77
2020/12/05 14:49:45;;;;;;;1.50;1.23;;;9.00;99.90;;;;;;4962986;28;20218;-77